Terminal Aerodrome Forecast
Issued by NWS Sterling, VA

Current Version | Previous Version | Text Only | Print | Product List | Glossary Off
Versions: 1 2 3 4 5 6 7 8 9 10 11 12 13

000
FTUS41 KLWX 202322
TAFMRB
TAF
KMRB 202322Z 2100/2124 29009KT P6SM SKC
     FM211500 27005KT P6SM BKN120
     FM211700 27006KT P6SM SCT060
     FM212000 27007KT P6SM BKN060
     FM212200 27006KT P6SM SCT060=

USA.gov is the U.S. government's official web portal to all federal, state and local government web resources and services.